Aviation Digital Data Service (ADDS)

Output produced by TAFs form (0452 UTC 01 July 2015)
found at http://aviationweather.gov/adds/tafs/
 
KHOB 302328Z 0100/0124 11008KT P6SM SCT080 SCT250 
     FM010100 15007KT P6SM SCT200 
     FM011500 15010G18KT P6SM FEW090